Time;durP1;ratioP1;P1;durP2;ratioP2;P2;SDS_P1;SDS_P2;PMS_P1;PMS_P2;Temp;Humidity;BMP_temperature;BMP_pressure;BME280_temperature;BME280_humidity;BME280_pressure;Samples;Min_cycle;Max_cycle;Signal;HPM_P1;HPM_P2
2022/04/17 00:00:11;;;;;;;5.83;2.83;;;-1.00;99.90;;;;;;8254342;28;20309;-64
2022/04/17 00:04:14;;;;;;;4.83;2.83;;;-1.10;99.90;;;;;;8251144;28;20198;-64
2022/04/17 00:08:15;;;;;;;4.87;2.67;;;-1.20;99.90;;;;;;8255109;28;20192;-64
2022/04/17 00:12:16;;;;;;;3.93;2.43;;;-1.20;99.90;;;;;;8250432;28;20600;-64
2022/04/17 00:16:17;;;;;;;3.63;2.13;;;-1.30;99.90;;;;;;8255215;28;20189;-65
2022/04/17 00:20:19;;;;;;;3.07;1.97;;;-1.40;99.90;;;;;;8252168;28;20335;-64
2022/04/17 00:24:20;;;;;;;3.67;2.30;;;-1.40;99.90;;;;;;8258699;28;20184;-64
2022/04/17 00:28:20;;;;;;;5.07;2.90;;;-1.50;99.90;;;;;;8258342;28;20199;-64
2022/04/17 00:32:21;;;;;;;4.67;2.50;;;-1.50;99.90;;;;;;8255821;28;20192;-64
2022/04/17 00:36:22;;;;;;;5.37;2.83;;;-1.50;99.90;;;;;;8254556;28;20211;-64
2022/04/17 00:40:23;;;;;;;4.60;2.30;;;-1.60;99.90;;;;;;8258712;28;20231;-64
2022/04/17 00:44:24;;;;;;;3.93;2.57;;;-1.60;99.90;;;;;;8250136;28;20185;-64
2022/04/17 00:48:25;;;;;;;5.13;2.17;;;-1.60;99.90;;;;;;8253440;28;20213;-64
2022/04/17 00:52:26;;;;;;;3.27;2.00;;;-1.70;99.90;;;;;;8251264;28;20196;-64
2022/04/17 00:56:27;;;;;;;3.57;2.17;;;-1.70;99.90;;;;;;8253440;28;20234;-64
2022/04/17 01:00:28;;;;;;;3.50;1.97;;;-1.80;99.90;;;;;;8253438;28;20212;-64
2022/04/17 01:04:28;;;;;;;5.30;2.60;;;-1.80;99.90;;;;;;8256707;28;20189;-64
2022/04/17 01:08:30;;;;;;;4.17;2.40;;;-1.90;99.90;;;;;;8247338;28;20192;-64
2022/04/17 01:12:31;;;;;;;4.53;2.17;;;-1.90;99.90;;;;;;8250917;28;20192;-64
2022/04/17 01:16:32;;;;;;;3.20;1.77;;;-1.90;99.90;;;;;;8247539;28;20187;-65
2022/04/17 01:20:36;;;;;;;4.40;2.47;;;-2.00;99.90;;;;;;8254135;28;20215;-64
2022/04/17 01:28:57;;;;;;;5.73;2.50;;;-2.00;99.90;;;;;;8256478;28;20210;-64
2022/04/17 01:32:58;;;;;;;4.87;2.47;;;-2.00;99.90;;;;;;8255136;28;20200;-64
2022/04/17 01:37:02;;;;;;;4.80;2.60;;;-2.00;99.90;;;;;;8249408;28;20282;-65
2022/04/17 01:41:03;;;;;;;4.80;2.67;;;-2.10;99.90;;;;;;8253858;28;20204;-63
2022/04/17 01:45:04;;;;;;;4.03;2.27;;;-2.10;99.90;;;;;;8259586;28;20186;-64
2022/04/17 01:49:05;;;;;;;3.03;2.13;;;-2.10;99.90;;;;;;8252374;28;20183;-63
2022/04/17 01:53:06;;;;;;;5.87;2.60;;;-2.10;99.90;;;;;;8251361;28;20187;-63
2022/04/17 01:57:07;;;;;;;4.17;2.67;;;-2.00;99.90;;;;;;8255155;28;20207;-64
2022/04/17 02:01:08;;;;;;;3.77;2.43;;;-2.00;99.90;;;;;;8250386;28;20492;-63
2022/04/17 02:05:09;;;;;;;4.07;2.27;;;-2.00;99.90;;;;;;8254501;28;20188;-64
2022/04/17 02:09:13;;;;;;;3.80;2.10;;;-2.00;99.90;;;;;;8262875;28;20186;-64
2022/04/17 02:13:14;;;;;;;4.73;2.60;;;-2.00;99.90;;;;;;8254997;28;20187;-65
2022/04/17 02:17:15;;;;;;;4.43;2.20;;;-2.00;99.90;;;;;;8254953;28;20188;-63
2022/04/17 02:21:17;;;;;;;4.73;2.37;;;-2.00;99.90;;;;;;8252885;28;20215;-63
2022/04/17 02:25:18;;;;;;;4.60;2.20;;;-2.10;99.90;;;;;;8256526;28;20269;-63
2022/04/17 02:29:19;;;;;;;4.43;2.00;;;-2.10;99.90;;;;;;8254993;28;20706;-63
2022/04/17 02:33:20;;;;;;;4.87;2.30;;;-2.10;99.90;;;;;;8256656;28;20188;-63
2022/04/17 02:37:21;;;;;;;3.57;2.30;;;-2.20;99.90;;;;;;8258569;28;20198;-64
2022/04/17 02:41:22;;;;;;;3.33;1.97;;;-2.20;99.90;;;;;;8254138;28;20211;-64
2022/04/17 02:45:23;;;;;;;4.03;2.30;;;-2.10;99.90;;;;;;8245927;28;20191;-63
2022/04/17 02:49:23;;;;;;;4.77;2.20;;;-2.10;99.90;;;;;;8263948;28;20215;-65
2022/04/17 02:53:24;;;;;;;4.27;2.40;;;-2.10;99.90;;;;;;8252775;28;20630;-63
2022/04/17 02:57:25;;;;;;;4.47;2.03;;;-2.10;99.90;;;;;;8254370;28;20195;-64
2022/04/17 03:05:45;;;;;;;7.20;2.17;;;-2.10;99.90;;;;;;8255384;28;20277;-63
2022/04/17 03:09:46;;;;;;;4.03;2.50;;;-2.00;99.90;;;;;;8248053;28;20192;-63
2022/04/17 03:13:48;;;;;;;5.43;2.47;;;-2.00;99.90;;;;;;8247770;28;20320;-63
2022/04/17 03:17:49;;;;;;;4.77;2.67;;;-2.00;99.90;;;;;;8246438;28;20516;-65
2022/04/17 03:21:49;;;;;;;3.73;2.47;;;-2.00;99.90;;;;;;8253688;28;20255;-65
2022/04/17 03:25:50;;;;;;;4.53;2.33;;;-2.00;99.90;;;;;;8243300;28;20802;-64
2022/04/17 03:29:51;;;;;;;4.13;2.70;;;-2.10;99.90;;;;;;8238742;28;20205;-63
2022/04/17 03:33:52;;;;;;;4.47;2.33;;;-2.10;99.90;;;;;;8255070;28;20179;-63
2022/04/17 03:37:55;;;;;;;3.50;2.10;;;-2.10;99.90;;;;;;8254792;28;20175;-63
2022/04/17 03:41:57;;;;;;;4.97;2.37;;;-2.10;99.90;;;;;;8256642;28;20212;-64
2022/04/17 03:45:58;;;;;;;4.57;2.50;;;-2.10;99.90;;;;;;8255239;28;20271;-64
2022/04/17 03:49:59;;;;;;;3.53;2.20;;;-2.10;99.90;;;;;;8256993;28;20645;-63
2022/04/17 03:54:00;;;;;;;5.03;2.87;;;-2.10;99.90;;;;;;8254948;28;20184;-64
2022/04/17 03:58:01;;;;;;;4.87;2.37;;;-2.10;99.90;;;;;;8255273;28;20188;-63
2022/04/17 04:02:02;;;;;;;5.40;2.50;;;-2.00;99.90;;;;;;8256208;28;20421;-63
2022/04/17 04:06:04;;;;;;;5.77;3.17;;;-1.90;99.90;;;;;;8252478;28;20354;-63
2022/04/17 04:10:07;;;;;;;4.43;2.57;;;-1.90;99.90;;;;;;8252471;28;20203;-63
2022/04/17 04:14:08;;;;;;;4.70;2.50;;;-1.80;99.90;;;;;;8251169;28;20216;-63
2022/04/17 04:18:08;;;;;;;4.73;3.17;;;-1.70;99.90;;;;;;8253768;28;20195;-63
2022/04/17 04:22:09;;;;;;;4.27;2.90;;;-1.50;99.90;;;;;;8256141;28;20211;-64
2022/04/17 04:26:10;;;;;;;5.73;2.80;;;-1.30;99.90;;;;;;8252008;28;20180;-63
2022/04/17 04:30:11;;;;;;;6.50;3.37;;;-0.90;99.90;;;;;;8253321;28;20205;-63
2022/04/17 04:34:12;;;;;;;3.50;3.20;;;-0.50;99.90;;;;;;8256789;28;20197;-64
2022/04/17 04:38:13;;;;;;;6.20;3.13;;;-0.10;99.90;;;;;;8251527;28;20243;-63
2022/04/17 04:42:14;;;;;;;5.00;3.40;;;-0.10;99.90;;;;;;8260281;28;20211;-64
2022/04/17 04:46:15;;;;;;;4.70;2.70;;;-0.10;99.90;;;;;;8270301;28;20239;-64
2022/04/17 04:50:15;;;;;;;5.27;2.87;;;-0.20;99.90;;;;;;8257896;28;20186;-63
2022/04/17 04:54:16;;;;;;;5.13;3.20;;;-0.20;99.90;;;;;;8256720;28;20192;-64
2022/04/17 04:58:17;;;;;;;3.97;2.77;;;-0.20;99.90;;;;;;8249536;28;20227;-63
2022/04/17 05:02:18;;;;;;;4.33;2.80;;;-0.20;99.90;;;;;;8253226;28;20211;-64
2022/04/17 05:06:18;;;;;;;4.93;2.37;;;-0.30;99.90;;;;;;8262552;28;20183;-63
2022/04/17 05:10:19;;;;;;;5.90;3.07;;;-0.30;99.90;;;;;;8251842;28;20211;-64
2022/04/17 05:14:20;;;;;;;5.63;3.40;;;-0.20;99.90;;;;;;8250618;28;20284;-64
2022/04/17 05:18:21;;;;;;;5.40;3.00;;;-0.10;99.90;;;;;;8257588;28;20205;-63
2022/04/17 05:22:31;;;;;;;5.43;3.47;;;0.00;99.90;;;;;;8259755;28;20560;-64
2022/04/17 05:26:31;;;;;;;4.73;3.53;;;0.20;99.90;;;;;;8250251;28;20198;-65
2022/04/17 05:30:32;;;;;;;7.30;3.13;;;0.40;99.90;;;;;;8251059;28;20188;-66
2022/04/17 05:34:35;;;;;;;3.60;2.47;;;0.60;99.90;;;;;;8253625;28;20230;-65
2022/04/17 05:38:36;;;;;;;6.93;3.37;;;0.80;99.90;;;;;;8246258;28;20227;-65
2022/04/17 05:42:37;;;;;;;4.80;3.33;;;0.90;99.90;;;;;;8250815;28;20224;-65
2022/04/17 05:46:41;;;;;;;5.33;3.40;;;1.20;99.90;;;;;;8246851;28;20192;-65
2022/04/17 05:50:41;;;;;;;4.03;2.77;;;1.40;99.90;;;;;;8255972;28;20192;-65
2022/04/17 05:54:43;;;;;;;5.23;2.93;;;1.60;99.90;;;;;;8249925;28;20199;-65
2022/04/17 05:58:44;;;;;;;3.80;2.47;;;1.90;99.90;;;;;;8248230;28;20211;-65
2022/04/17 06:02:46;;;;;;;4.83;2.80;;;2.20;99.90;;;;;;8259385;28;20208;-65
2022/04/17 06:06:47;;;;;;;5.27;3.37;;;2.50;99.90;;;;;;8250689;28;20187;-65
2022/04/17 06:10:48;;;;;;;5.90;3.17;;;2.90;99.90;;;;;;8257820;28;20299;-65
2022/04/17 06:14:48;;;;;;;4.80;3.43;;;3.30;99.90;;;;;;8253664;28;20269;-65
2022/04/17 06:18:49;;;;;;;5.87;3.90;;;3.70;99.90;;;;;;8248438;28;20263;-66
2022/04/17 06:22:50;;;;;;;15.03;5.80;;;4.20;1.00;;;;;;8246190;28;20224;-66
2022/04/17 06:26:51;;;;;;;8.17;4.13;;;4.50;1.00;;;;;;8248740;28;20306;-66
2022/04/17 06:30:51;;;;;;;6.87;4.37;;;4.90;99.90;;;;;;8251777;28;20192;-66
2022/04/17 06:34:53;;;;;;;7.20;4.60;;;5.40;99.90;;;;;;8252288;28;20192;-66
2022/04/17 06:38:53;;;;;;;6.67;4.47;;;5.80;1.00;;;;;;8249199;28;20215;-66
2022/04/17 06:42:58;;;;;;;8.77;6.07;;;6.20;99.90;;;;;;8250073;28;20269;-66
2022/04/17 06:46:59;;;;;;;10.40;6.80;;;6.70;1.00;;;;;;8249680;28;20190;-66
2022/04/17 06:51:00;;;;;;;5.63;4.63;;;7.10;99.90;;;;;;8254300;28;20250;-67
2022/04/17 06:55:01;;;;;;;7.60;4.03;;;7.40;1.00;;;;;;8248324;28;20214;-66
2022/04/17 06:59:05;;;;;;;10.77;4.83;;;7.50;99.90;;;;;;8254029;28;20223;-66
2022/04/17 07:03:06;;;;;;;7.70;4.50;;;7.70;99.90;;;;;;8256414;28;20208;-66
2022/04/17 07:07:07;;;;;;;8.80;5.17;;;7.90;99.90;;;;;;8255801;28;20315;-65
2022/04/17 07:11:08;;;;;;;7.73;4.57;;;8.20;99.90;;;;;;8248754;28;20203;-64
2022/04/17 07:15:09;;;;;;;8.80;5.53;;;8.40;99.90;;;;;;8255959;28;20251;-63
2022/04/17 07:19:10;;;;;;;5.87;3.70;;;8.60;99.90;;;;;;8245546;28;20216;-63
2022/04/17 07:23:11;;;;;;;4.97;3.53;;;8.80;99.90;;;;;;8256995;28;20339;-63
2022/04/17 07:27:16;;;;;;;3.87;2.80;;;9.00;1.00;;;;;;8261154;28;20543;-64
2022/04/17 07:31:17;;;;;;;4.43;2.60;;;9.10;1.00;;;;;;8253653;28;20223;-63
2022/04/17 07:35:20;;;;;;;3.27;2.20;;;9.10;99.90;;;;;;8252195;28;20515;-64
2022/04/17 07:39:22;;;;;;;2.90;1.70;;;9.20;99.90;;;;;;8253342;28;20209;-63
2022/04/17 07:43:24;;;;;;;4.20;2.73;;;9.20;99.90;;;;;;8251828;28;20546;-64
2022/04/17 07:47:24;;;;;;;3.07;1.73;;;9.10;99.90;;;;;;8250115;28;20364;-63
2022/04/17 07:51:25;;;;;;;3.03;1.97;;;9.00;99.90;;;;;;8250410;28;20199;-64
2022/04/17 07:55:26;;;;;;;4.37;2.30;;;8.90;99.90;;;;;;8252820;28;20200;-63
2022/04/17 07:59:27;;;;;;;6.10;2.30;;;8.90;99.90;;;;;;8252322;28;20203;-62
2022/04/17 08:07:34;;;;;;;3.93;2.60;;;8.70;99.90;;;;;;8251665;28;20192;-64
2022/04/17 08:11:36;;;;;;;3.33;2.53;;;8.60;99.90;;;;;;8247694;28;20194;-65
2022/04/17 08:15:36;;;;;;;5.43;2.83;;;8.50;99.90;;;;;;8248045;28;20203;-63
2022/04/17 08:19:37;;;;;;;4.20;2.23;;;8.50;99.90;;;;;;8250625;28;20195;-64
2022/04/17 08:23:38;;;;;;;3.20;2.30;;;8.70;99.90;;;;;;8252087;28;20252;-62
2022/04/17 08:27:50;;;;;;;5.73;2.60;;;8.60;99.90;;;;;;8253927;28;20199;-65
2022/04/17 08:31:52;;;;;;;3.27;2.37;;;8.90;99.90;;;;;;8249835;28;20193;-65
2022/04/17 08:35:59;;;;;;;5.10;2.20;;;9.20;99.90;;;;;;8250855;28;20242;-63
2022/04/17 08:39:59;;;;;;;4.57;2.43;;;9.50;99.90;;;;;;8252223;28;20215;-63
2022/04/17 08:44:00;;;;;;;4.83;1.90;;;9.80;99.90;;;;;;8258288;28;20266;-64
2022/04/17 08:48:03;;;;;;;5.13;2.20;;;9.70;99.90;;;;;;8256177;28;20199;-62
2022/04/17 08:52:09;;;;;;;4.73;2.53;;;9.80;99.90;;;;;;8264095;28;20203;-62
2022/04/17 08:56:10;;;;;;;4.50;2.00;;;10.10;99.90;;;;;;8250779;28;20187;-61
2022/04/17 09:00:16;;;;;;;6.40;3.20;;;10.20;99.90;;;;;;8253246;28;20208;-61
2022/04/17 09:04:17;;;;;;;3.00;2.27;;;10.30;99.90;;;;;;8253777;28;20250;-64
2022/04/17 09:08:24;;;;;;;2.33;1.90;;;10.30;99.90;;;;;;8245735;28;20192;-61
2022/04/17 09:12:26;;;;;;;14.70;5.53;;;10.20;99.90;;;;;;8248584;28;20208;-64
2022/04/17 09:16:34;;;;;;;3.43;1.60;;;10.40;99.90;;;;;;8249927;28;20205;-62
2022/04/17 09:20:35;;;;;;;3.30;2.10;;;10.20;99.90;;;;;;8251565;28;20208;-62
2022/04/17 09:24:38;;;;;;;3.03;1.77;;;10.60;99.90;;;;;;8248378;28;20193;-63
2022/04/17 09:28:44;;;;;;;3.00;1.60;;;11.20;99.90;;;;;;8262567;28;20249;-61
2022/04/17 09:32:45;;;;;;;2.77;1.70;;;11.40;99.90;;;;;;8255194;28;20194;-62
2022/04/17 09:36:51;;;;;;;3.90;1.87;;;11.70;98.50;;;;;;8254537;28;20283;-61
2022/04/17 09:40:52;;;;;;;3.67;2.40;;;12.20;98.50;;;;;;8249688;28;20211;-62
2022/04/17 09:44:55;;;;;;;2.80;1.67;;;12.50;99.90;;;;;;8253565;28;20190;-65
2022/04/17 09:49:00;;;;;;;3.10;2.03;;;12.90;54.10;;;;;;8245154;28;20188;-62
2022/04/17 09:53:06;;;;;;;6.73;6.00;;;12.90;53.90;;;;;;8246844;28;20187;-62
2022/04/17 09:57:07;;;;;;;3.20;1.90;;;13.10;99.90;;;;;;8241327;28;20194;-62
2022/04/17 10:01:08;;;;;;;2.53;1.70;;;13.20;46.10;;;;;;8248630;28;20212;-60
2022/04/17 10:05:14;;;;;;;2.93;2.07;;;13.40;26.00;;;;;;8245296;28;20220;-62
2022/04/17 10:09:15;;;;;;;3.13;1.50;;;13.60;43.60;;;;;;8248490;28;20180;-62
2022/04/17 10:13:17;;;;;;;3.23;1.40;;;13.80;25.60;;;;;;8251659;28;20326;-63
2022/04/17 10:17:20;;;;;;;2.87;1.47;;;13.40;16.20;;;;;;8248350;28;20247;-62
2022/04/17 10:21:23;;;;;;;3.93;1.53;;;12.60;21.70;;;;;;8251405;28;20212;-63
2022/04/17 10:25:24;;;;;;;2.97;1.37;;;11.60;63.50;;;;;;8248210;28;20280;-62
2022/04/17 10:29:39;;;;;;;3.40;1.90;;;11.50;64.40;;;;;;8247604;28;20211;-63
2022/04/17 10:34:07;;;;;;;3.63;2.37;;;11.70;66.00;;;;;;8250543;28;20195;-63
2022/04/17 10:38:28;;;;;;;3.07;1.80;;;12.30;71.60;;;;;;8261472;28;20605;-60
2022/04/17 10:42:36;;;;;;;3.70;2.00;;;12.30;37.20;;;;;;8255716;28;20223;-61
2022/04/17 10:46:46;;;;;;;3.60;1.83;;;12.20;40.90;;;;;;8251849;28;20184;-62
2022/04/17 10:50:51;;;;;;;3.53;2.43;;;12.50;68.10;;;;;;8250685;28;20184;-60
2022/04/17 10:54:52;;;;;;;5.13;2.30;;;13.00;69.80;;;;;;8247804;28;20184;-61
2022/04/17 10:58:56;;;;;;;2.60;1.60;;;13.40;42.20;;;;;;8255317;28;20195;-63
2022/04/17 11:03:02;;;;;;;2.60;1.53;;;13.50;48.50;;;;;;8256258;28;20212;-60
2022/04/17 11:07:06;;;;;;;2.83;1.60;;;12.60;60.80;;;;;;8252909;28;20180;-62
2022/04/17 11:11:09;;;;;;;5.33;2.00;;;12.50;99.90;;;;;;8264424;28;20328;-62
2022/04/17 11:15:09;;;;;;;3.37;1.67;;;13.20;40.90;;;;;;8251234;28;20180;-62
2022/04/17 11:19:19;;;;;;;1.67;1.07;;;13.80;12.10;;;;;;8253963;28;20656;-61
2022/04/17 11:23:47;;;;;;;3.17;1.47;;;14.10;1.00;;;;;;8215458;28;20212;-62
2022/04/17 11:27:50;;;;;;;4.60;1.20;;;13.60;13.50;;;;;;8193254;28;20412;-62
2022/04/17 11:31:51;;;;;;;2.37;0.93;;;13.40;36.60;;;;;;8215076;28;20188;-62
2022/04/17 11:35:53;;;;;;;2.83;1.63;;;12.70;62.50;;;;;;8210051;28;20284;-62
2022/04/17 11:39:57;;;;;;;2.53;1.30;;;12.70;35.70;;;;;;8231840;28;20203;-62
2022/04/17 11:44:02;;;;;;;1.80;1.00;;;12.80;32.90;;;;;;8236915;28;20719;-65
2022/04/17 11:48:06;;;;;;;2.27;1.20;;;12.50;59.40;;;;;;8240714;28;20191;-64
2022/04/17 11:52:20;;;;;;;2.60;1.17;;;12.60;96.70;;;;;;8223970;28;20192;-64
2022/04/17 11:56:21;;;;;;;1.97;1.20;;;12.70;40.30;;;;;;8220241;28;20251;-63
2022/04/17 12:00:22;;;;;;;1.80;1.10;;;13.00;92.40;;;;;;8212907;28;20326;-63
2022/04/17 12:04:23;;;;;;;3.90;2.10;;;13.10;42.30;;;;;;8222290;28;20190;-60
2022/04/17 12:08:35;;;;;;;2.83;1.10;;;13.50;18.50;;;;;;8229227;28;20192;-62
2022/04/17 12:12:42;;;;;;;4.60;3.00;;;13.70;7.50;;;;;;8218109;28;20180;-65
2022/04/17 12:16:52;;;;;;;2.33;1.23;;;13.30;33.80;;;;;;8245276;28;20191;-61
2022/04/17 12:21:02;;;;;;;3.77;1.40;;;13.10;39.80;;;;;;8212292;28;20533;-64
2022/04/17 12:25:04;;;;;;;3.63;1.97;;;12.40;90.60;;;;;;8252360;28;20192;-61
2022/04/17 12:29:06;;;;;;;2.93;1.93;;;12.50;99.90;;;;;;8253287;28;20196;-60
2022/04/17 12:33:39;;;;;;;3.57;2.57;;;13.10;93.50;;;;;;8254698;28;20374;-66
2022/04/17 12:37:40;;;;;;;2.20;1.67;;;13.70;64.70;;;;;;8241084;28;20799;-61
2022/04/17 12:41:50;;;;;;;1.80;1.10;;;14.10;31.60;;;;;;8254128;28;20223;-61
2022/04/17 12:45:59;;;;;;;1.73;1.30;;;14.10;19.70;;;;;;8251333;28;20195;-61
2022/04/17 12:50:05;;;;;;;2.67;1.60;;;13.80;13.30;;;;;;8249463;28;20187;-60
2022/04/17 12:54:12;;;;;;;3.17;1.93;;;13.50;74.90;;;;;;8252638;28;20188;-62
2022/04/17 12:58:13;;;;;;;2.23;1.37;;;14.00;21.90;;;;;;8252774;28;20188;-60
2022/04/17 13:02:15;;;;;;;4.67;2.00;;;14.40;9.00;;;;;;8250571;28;20211;-60
2022/04/17 13:06:21;;;;;;;1.63;1.10;;;14.80;11.20;;;;;;8249329;28;20184;-62
2022/04/17 13:10:30;;;;;;;3.90;2.53;;;14.90;1.00;;;;;;8250814;28;20188;-61
2022/04/17 13:14:31;;;;;;;1.83;1.20;;;14.70;1.00;;;;;;8245484;28;20195;-63
2022/04/17 13:18:34;;;;;;;1.30;0.90;;;15.00;1.00;;;;;;8247499;28;20195;-64
2022/04/17 13:22:34;;;;;;;2.90;1.93;;;14.90;1.00;;;;;;8252710;28;20219;-62
2022/04/17 13:26:35;;;;;;;3.27;2.33;;;14.80;1.00;;;;;;8255892;28;20519;-62
2022/04/17 13:30:36;;;;;;;1.83;1.47;;;15.00;1.00;;;;;;8249718;28;20213;-62
2022/04/17 13:34:37;;;;;;;3.33;1.10;;;14.80;4.40;;;;;;8249985;28;20204;-61
2022/04/17 13:38:38;;;;;;;1.07;0.73;;;14.70;1.00;;;;;;8246779;28;20377;-63
2022/04/17 13:42:38;;;;;;;3.33;1.07;;;13.90;9.00;;;;;;8245954;28;20235;-62
2022/04/17 13:46:39;;;;;;;4.20;2.07;;;13.50;91.80;;;;;;8243963;28;20204;-61
2022/04/17 13:50:40;;;;;;;4.43;2.70;;;14.00;12.30;;;;;;8251451;28;20192;-68
2022/04/17 13:54:41;;;;;;;4.90;2.37;;;14.30;9.30;;;;;;8253981;28;20195;-61
2022/04/17 13:58:42;;;;;;;4.00;2.13;;;14.30;5.80;;;;;;8252266;28;20215;-60
2022/04/17 14:02:43;;;;;;;3.33;1.80;;;14.20;6.40;;;;;;8239537;28;20235;-63
2022/04/17 14:06:44;;;;;;;2.13;1.43;;;14.20;10.70;;;;;;8252598;28;20322;-61
2022/04/17 14:10:45;;;;;;;8.30;4.23;;;14.00;8.70;;;;;;8248794;28;20195;-59
2022/04/17 14:14:47;;;;;;;9.20;4.17;;;13.90;1.00;;;;;;8250336;28;20242;-61
2022/04/17 14:18:47;;;;;;;13.30;6.83;;;13.80;1.00;;;;;;8247986;28;20208;-60
2022/04/17 14:22:48;;;;;;;9.87;4.50;;;13.90;1.00;;;;;;8249075;28;20284;-60
2022/04/17 14:26:49;;;;;;;5.53;3.30;;;14.10;6.50;;;;;;8245832;28;20196;-61
2022/04/17 14:30:50;;;;;;;2.83;1.47;;;14.30;4.90;;;;;;8247005;28;20219;-62
2022/04/17 14:34:51;;;;;;;2.60;1.90;;;14.40;16.90;;;;;;8247450;28;20210;-61
2022/04/17 14:38:52;;;;;;;9.57;4.47;;;14.70;1.00;;;;;;8249670;28;20207;-59
2022/04/17 14:42:53;;;;;;;2.83;1.97;;;14.80;1.00;;;;;;8249902;28;20203;-63
2022/04/17 14:46:54;;;;;;;3.70;2.37;;;14.80;1.00;;;;;;8245031;28;20282;-61
2022/04/17 14:50:56;;;;;;;4.83;3.17;;;14.70;1.00;;;;;;8248181;28;20195;-61
2022/04/17 14:54:57;;;;;;;4.53;3.17;;;14.60;1.00;;;;;;8250801;28;20218;-61
2022/04/17 14:58:58;;;;;;;8.63;4.43;;;14.30;1.00;;;;;;8246381;28;20219;-62
2022/04/17 15:03:02;;;;;;;16.30;7.60;;;14.00;1.00;;;;;;8242806;28;20216;-60
2022/04/17 15:07:03;;;;;;;25.03;10.53;;;13.60;1.00;;;;;;8241504;28;20254;-61
2022/04/17 15:11:03;;;;;;;13.77;6.73;;;13.50;12.50;;;;;;8248285;28;20192;-63
2022/04/17 15:15:05;;;;;;;12.10;5.33;;;13.60;9.10;;;;;;8251301;28;20188;-60
2022/04/17 15:19:06;;;;;;;1.80;1.10;;;14.00;1.00;;;;;;8249772;28;20184;-64
2022/04/17 15:23:06;;;;;;;8.97;4.80;;;14.10;1.00;;;;;;8245012;28;20323;-60
2022/04/17 15:27:09;;;;;;;10.27;5.23;;;14.30;1.00;;;;;;8249403;28;20191;-61
2022/04/17 15:31:10;;;;;;;5.50;2.87;;;14.60;1.00;;;;;;8256743;28;20251;-60
2022/04/17 15:35:11;;;;;;;6.33;3.43;;;14.50;1.00;;;;;;8265310;28;20214;-60
2022/04/17 15:39:12;;;;;;;11.93;4.77;;;14.40;1.00;;;;;;8253728;28;20203;-61
2022/04/17 15:51:51;;;;;;;16.87;7.10;;;13.80;14.30;;;;;;8254513;28;20266;-60
2022/04/17 15:55:52;;;;;;;17.07;7.30;;;13.60;27.10;;;;;;8257065;28;20192;-61
2022/04/17 15:59:53;;;;;;;31.13;11.93;;;13.30;29.10;;;;;;8257074;28;20196;-60
2022/04/17 16:03:54;;;;;;;15.63;6.17;;;13.00;39.50;;;;;;8258386;28;20208;-63
2022/04/17 16:07:55;;;;;;;16.13;6.77;;;12.70;51.60;;;;;;8266568;28;20187;-64
2022/04/17 16:11:55;;;;;;;5.93;2.90;;;12.70;79.70;;;;;;8257906;28;20523;-61
2022/04/17 16:15:56;;;;;;;2.63;1.60;;;12.80;84.10;;;;;;8257563;28;20307;-62
2022/04/17 16:19:58;;;;;;;2.53;1.40;;;13.00;72.90;;;;;;8257949;28;20195;-61
2022/04/17 16:23:59;;;;;;;5.10;2.33;;;13.20;47.30;;;;;;8264742;28;20210;-63
2022/04/17 16:28:00;;;;;;;2.87;1.73;;;13.10;43.10;;;;;;8250642;28;20196;-63
2022/04/17 16:32:01;;;;;;;2.10;1.43;;;13.00;57.80;;;;;;8253486;28;20211;-61
2022/04/17 16:36:02;;;;;;;3.87;1.53;;;13.00;54.60;;;;;;8249803;28;20245;-61
2022/04/17 16:40:03;;;;;;;32.40;13.17;;;12.80;59.90;;;;;;8246865;28;20511;-61
2022/04/17 16:44:05;;;;;;;27.50;11.67;;;12.60;75.70;;;;;;8250352;28;20250;-62
2022/04/17 16:48:06;;;;;;;27.17;12.93;;;12.40;90.60;;;;;;8250129;28;20184;-61
2022/04/17 16:52:07;;;;;;;28.10;12.23;;;12.30;97.40;;;;;;8253865;28;20199;-61
2022/04/17 16:56:08;;;;;;;18.77;10.40;;;12.30;99.90;;;;;;8253886;28;20183;-61
2022/04/17 17:00:10;;;;;;;15.57;13.60;;;12.20;99.90;;;;;;8256783;28;20195;-61
2022/04/17 17:04:12;;;;;;;26.83;18.10;;;12.10;99.90;;;;;;8250430;28;20206;-61
2022/04/17 17:08:13;;;;;;;23.57;15.70;;;11.90;99.90;;;;;;8251528;28;20194;-60
2022/04/17 17:12:14;;;;;;;29.83;18.77;;;11.80;99.90;;;;;;8249217;28;20199;-61
2022/04/17 17:16:15;;;;;;;34.93;20.17;;;11.70;99.90;;;;;;8251218;28;20222;-60
2022/04/17 17:20:18;;;;;;;61.63;43.67;;;11.60;99.90;;;;;;8257544;28;20194;-61
2022/04/17 17:24:19;;;;;;;26.27;16.43;;;11.60;99.90;;;;;;8253957;28;20194;-62
2022/04/17 17:28:20;;;;;;;8.73;4.77;;;11.40;99.90;;;;;;8253239;28;20203;-64
2022/04/17 17:32:21;;;;;;;15.97;7.83;;;11.10;99.90;;;;;;8244306;28;20285;-61
2022/04/17 17:36:22;;;;;;;7.73;5.07;;;10.90;99.90;;;;;;8248244;28;20197;-61
2022/04/17 17:40:22;;;;;;;10.93;4.80;;;10.70;99.90;;;;;;8260298;28;20258;-61
2022/04/17 17:44:25;;;;;;;7.47;3.90;;;10.50;99.90;;;;;;8261218;28;20185;-60
2022/04/17 17:48:26;;;;;;;6.40;3.70;;;10.30;99.90;;;;;;8260116;28;20198;-62
2022/04/17 17:52:31;;;;;;;4.47;3.07;;;10.00;1.00;;;;;;8246766;28;20189;-61
2022/04/17 17:56:36;;;;;;;4.67;3.10;;;9.70;72.30;;;;;;8245874;28;20211;-62
2022/04/17 18:00:41;;;;;;;5.10;3.50;;;9.40;99.90;;;;;;8249566;28;20319;-61
2022/04/17 18:04:42;;;;;;;4.53;2.87;;;9.00;99.90;;;;;;8248672;28;20246;-64
2022/04/17 18:17:23;;;;;;;4.77;2.97;;;8.10;99.90;;;;;;8250273;28;20207;-64
2022/04/17 18:21:25;;;;;;;7.87;5.20;;;7.80;1.00;;;;;;8250462;28;20211;-64
2022/04/17 18:25:27;;;;;;;6.00;4.17;;;7.60;99.90;;;;;;8248847;28;20207;-64
2022/04/17 18:29:28;;;;;;;5.50;3.50;;;7.30;99.90;;;;;;8240585;28;20203;-64
2022/04/17 18:33:29;;;;;;;4.67;3.13;;;7.10;1.00;;;;;;8249574;28;20241;-64
2022/04/17 18:37:30;;;;;;;3.80;2.60;;;6.80;1.00;;;;;;8248966;28;20200;-64
2022/04/17 18:41:31;;;;;;;4.10;2.20;;;6.70;99.90;;;;;;8258537;28;20222;-64
2022/04/17 18:45:32;;;;;;;3.37;2.37;;;6.50;99.90;;;;;;8246759;28;20191;-65
2022/04/17 18:49:34;;;;;;;5.03;2.60;;;6.30;1.00;;;;;;8249173;28;20176;-64
2022/04/17 18:53:35;;;;;;;4.40;2.83;;;6.10;99.90;;;;;;8250994;28;20195;-64
2022/04/17 18:57:37;;;;;;;4.50;2.73;;;6.00;99.90;;;;;;8257324;28;20210;-63
2022/04/17 19:01:38;;;;;;;6.20;2.97;;;5.90;1.00;;;;;;8252618;28;20215;-64
2022/04/17 19:05:39;;;;;;;6.70;3.53;;;5.80;99.90;;;;;;8260521;28;20183;-64
2022/04/17 19:09:40;;;;;;;5.83;4.30;;;5.80;1.00;;;;;;8258808;28;20607;-64
2022/04/17 19:14:01;;;;;;;5.83;3.47;;;5.70;3.50;;;;;;8258798;28;20250;-64
2022/04/17 19:18:02;;;;;;;5.53;2.77;;;5.60;99.90;;;;;;8251235;28;20202;-64
2022/04/17 19:22:03;;;;;;;3.70;2.33;;;5.60;99.90;;;;;;8257798;28;20219;-64
2022/04/17 19:26:04;;;;;;;3.70;2.00;;;5.50;99.90;;;;;;8256917;28;20180;-64
2022/04/17 19:30:06;;;;;;;2.53;1.83;;;5.40;99.90;;;;;;8257718;28;20291;-64
2022/04/17 19:38:27;;;;;;;4.73;2.40;;;5.20;1.00;;;;;;8254261;28;20249;-64
2022/04/17 19:42:28;;;;;;;3.17;2.07;;;5.10;99.90;;;;;;8252493;28;20243;-64
2022/04/17 19:46:29;;;;;;;6.47;2.20;;;5.00;1.00;;;;;;8253407;28;20277;-64
2022/04/17 19:50:30;;;;;;;3.37;1.93;;;4.90;99.90;;;;;;8252507;28;20195;-64
2022/04/17 19:54:30;;;;;;;2.13;1.40;;;4.80;99.90;;;;;;8255022;28;20226;-64
2022/04/17 19:58:32;;;;;;;2.07;1.60;;;4.80;1.00;;;;;;8259141;28;20219;-64
2022/04/17 20:02:33;;;;;;;2.40;1.73;;;4.70;99.90;;;;;;8256484;28;20315;-64
2022/04/17 20:06:34;;;;;;;2.63;1.80;;;4.80;99.90;;;;;;8253709;28;20199;-64
2022/04/17 20:10:35;;;;;;;2.03;1.50;;;4.80;99.90;;;;;;8262035;28;20257;-65
2022/04/17 20:14:36;;;;;;;3.10;2.00;;;4.80;99.90;;;;;;8253014;28;20176;-64
2022/04/17 20:18:37;;;;;;;2.10;1.60;;;4.90;99.90;;;;;;8257389;28;20211;-64
2022/04/17 20:22:38;;;;;;;1.60;1.50;;;4.90;99.90;;;;;;8253058;28;20261;-64
2022/04/17 20:26:40;;;;;;;2.97;1.70;;;4.90;1.00;;;;;;8254897;28;20194;-64
2022/04/17 20:30:41;;;;;;;2.33;1.57;;;5.00;1.00;;;;;;8254999;28;20192;-64
2022/04/17 20:34:42;;;;;;;2.87;1.40;;;5.00;1.00;;;;;;8252882;28;20195;-64
2022/04/17 20:38:43;;;;;;;1.80;1.50;;;5.00;1.00;;;;;;8262759;28;20214;-64
2022/04/17 20:42:45;;;;;;;2.03;1.40;;;5.00;99.90;;;;;;8257408;28;20307;-65
2022/04/17 20:51:07;;;;;;;2.40;1.60;;;5.00;8.10;;;;;;8252057;28;20241;-63
2022/04/17 20:55:08;;;;;;;2.67;1.50;;;5.00;99.90;;;;;;8251582;28;20607;-65
2022/04/17 20:59:09;;;;;;;2.10;1.40;;;5.00;1.00;;;;;;8254068;28;20214;-64
2022/04/17 21:03:18;;;;;;;1.83;1.30;;;5.00;1.00;;;;;;8247814;28;20215;-65
2022/04/17 21:07:19;;;;;;;2.13;1.60;;;5.00;99.90;;;;;;8245687;28;20445;-64
2022/04/17 21:11:19;;;;;;;2.00;1.50;;;5.00;99.90;;;;;;8258645;28;20349;-64
2022/04/17 21:15:20;;;;;;;2.43;1.43;;;5.10;99.90;;;;;;8249139;28;20195;-64
2022/04/17 21:19:21;;;;;;;1.83;1.30;;;5.10;1.00;;;;;;8243732;28;20356;-63
2022/04/17 21:23:22;;;;;;;2.00;1.53;;;5.20;99.90;;;;;;8253608;28;20251;-64
2022/04/17 21:27:23;;;;;;;2.30;1.50;;;5.20;99.90;;;;;;8250019;28;20277;-64
2022/04/17 21:31:24;;;;;;;2.00;1.37;;;5.20;99.90;;;;;;8261728;28;20206;-69
2022/04/17 21:35:25;;;;;;;1.60;1.33;;;5.30;99.90;;;;;;8243953;28;20250;-64
2022/04/17 21:39:26;;;;;;;2.23;1.50;;;5.30;99.90;;;;;;8251564;28;20215;-64
2022/04/17 21:43:26;;;;;;;2.03;1.60;;;5.40;99.90;;;;;;8252221;28;20561;-64